Time;durP1;ratioP1;P1;durP2;ratioP2;P2;SDS_P1;SDS_P2;PMS_P1;PMS_P2;Temp;Humidity;BMP_temperature;BMP_pressure;BME280_temperature;BME280_humidity;BME280_pressure;Samples;Min_cycle;Max_cycle;Signal;HPM_P1;HPM_P2
2023/05/18 00:01:18;;;;;;;13.37;3.70;;;;;6.80;96936.00;;;;8264373;28;20290;-67
2023/05/18 00:05:24;;;;;;;13.13;3.93;;;;;6.80;96936.00;;;;8273981;28;20198;-68
2023/05/18 00:09:31;;;;;;;11.00;3.97;;;;;6.80;96934.00;;;;8264845;28;20297;-68
2023/05/18 00:13:36;;;;;;;10.73;3.17;;;;;6.80;96926.00;;;;8271769;28;20575;-67
2023/05/18 00:17:41;;;;;;;14.47;4.37;;;;;6.80;96928.00;;;;8261484;28;20203;-68
2023/05/18 00:21:46;;;;;;;10.60;4.00;;;;;6.80;96922.00;;;;8262225;28;20203;-68
2023/05/18 00:26:01;;;;;;;12.10;3.97;;;;;6.70;96917.00;;;;8259992;28;20600;-68
2023/05/18 00:30:05;;;;;;;13.80;3.50;;;;;6.70;96924.00;;;;8263716;28;20228;-68
2023/05/18 00:34:09;;;;;;;13.60;4.10;;;;;6.60;96928.00;;;;8260653;28;20396;-68
2023/05/18 00:38:15;;;;;;;19.73;4.13;;;;;6.50;96918.00;;;;8262041;28;20209;-68
2023/05/18 00:42:20;;;;;;;9.17;3.70;;;;;6.40;96919.00;;;;8268773;28;20241;-67
2023/05/18 00:46:26;;;;;;;6.27;4.00;;;;;6.40;96921.00;;;;8266898;28;20199;-67
2023/05/18 00:50:30;;;;;;;10.93;4.17;;;;;6.40;96929.00;;;;8259106;28;20237;-67
2023/05/18 00:54:38;;;;;;;10.53;3.90;;;;;6.40;96934.00;;;;8255964;28;21046;-68
2023/05/18 00:58:43;;;;;;;7.83;4.13;;;;;6.30;96930.00;;;;8248491;28;20207;-67
2023/05/18 01:02:50;;;;;;;10.10;3.80;;;;;6.20;96929.00;;;;8258743;28;20229;-67
2023/05/18 01:06:57;;;;;;;11.00;3.90;;;;;6.10;96916.00;;;;8255965;28;20209;-67
2023/05/18 01:11:08;;;;;;;13.87;3.73;;;;;6.10;96922.00;;;;8261124;28;20880;-67
2023/05/18 01:15:16;;;;;;;16.03;6.17;;;;;6.00;96913.00;;;;8261223;28;20209;-68
2023/05/18 01:19:52;;;;;;;8.50;3.87;;;;;6.00;96916.00;;;;8256657;28;20298;-68
2023/05/18 01:24:14;;;;;;;6.10;3.80;;;;;6.00;96922.00;;;;8256703;28;20234;-67
2023/05/18 01:28:25;;;;;;;10.37;4.00;;;;;5.90;96916.00;;;;8254377;28;20201;-67
2023/05/18 01:32:41;;;;;;;7.90;3.57;;;;;5.90;96913.00;;;;8259001;28;20264;-67
2023/05/18 01:36:45;;;;;;;12.07;4.47;;;;;6.00;96916.00;;;;8247660;28;20251;-68
2023/05/18 01:41:14;;;;;;;10.07;4.53;;;;;5.90;96913.00;;;;8256003;28;20202;-67
2023/05/18 01:45:23;;;;;;;10.20;4.17;;;;;5.90;96909.00;;;;8252019;28;20713;-67
2023/05/18 01:49:32;;;;;;;14.40;4.40;;;;;5.90;96914.00;;;;8271154;28;20205;-68
2023/05/18 01:53:39;;;;;;;15.17;4.37;;;;;5.80;96910.00;;;;8274010;28;20287;-68
2023/05/18 01:57:45;;;;;;;18.00;4.80;;;;;5.70;96903.00;;;;8261994;28;20216;-68
2023/05/18 02:01:57;;;;;;;17.83;4.70;;;;;5.60;96902.00;;;;8254825;28;20256;-67
2023/05/18 02:06:03;;;;;;;7.20;4.03;;;;;5.50;96900.00;;;;8257641;28;20304;-68
2023/05/18 02:10:07;;;;;;;11.87;4.10;;;;;5.50;96899.00;;;;8263676;28;20198;-68
2023/05/18 02:14:11;;;;;;;8.63;4.17;;;;;5.40;96902.00;;;;8259138;28;20214;-68
2023/05/18 02:18:17;;;;;;;13.90;4.50;;;;;5.30;96898.00;;;;8259847;28;20296;-68
2023/05/18 02:22:22;;;;;;;17.03;4.27;;;;;5.20;96898.00;;;;8263319;28;20653;-68
2023/05/18 02:26:25;;;;;;;9.83;4.47;;;;;5.10;96902.00;;;;8255659;28;20236;-68
2023/05/18 02:30:31;;;;;;;16.00;5.50;;;;;4.90;96902.00;;;;8260464;28;20210;-68
2023/05/18 02:34:40;;;;;;;11.43;4.37;;;;;4.80;96894.00;;;;8261505;28;20583;-68
2023/05/18 02:38:47;;;;;;;7.00;4.33;;;;;4.70;96895.00;;;;8263844;28;20294;-68
2023/05/18 02:42:50;;;;;;;15.53;5.03;;;;;4.60;96898.00;;;;8255702;28;20544;-68
2023/05/18 02:46:54;;;;;;;13.57;4.17;;;;;4.60;96898.00;;;;8258689;28;20302;-67
2023/05/18 02:51:02;;;;;;;17.17;5.00;;;;;4.50;96893.00;;;;8254598;28;20206;-68
2023/05/18 02:55:06;;;;;;;14.50;4.70;;;;;4.40;96895.00;;;;8257174;28;20203;-68
2023/05/18 02:59:10;;;;;;;13.13;4.67;;;;;4.30;96882.00;;;;8255910;28;20204;-67
2023/05/18 03:03:15;;;;;;;11.63;4.60;;;;;4.20;96879.00;;;;8300696;22;20250;-69
2023/05/18 03:07:20;;;;;;;16.50;4.93;;;;;4.10;96885.00;;;;8305361;28;20206;-69
2023/05/18 03:11:23;;;;;;;13.50;4.30;;;;;4.00;96885.00;;;;8307622;28;20328;-69
2023/05/18 03:15:30;;;;;;;12.70;4.13;;;;;3.90;96885.00;;;;8305210;28;20237;-68
2023/05/18 03:19:34;;;;;;;21.73;5.20;;;;;3.80;96889.00;;;;8312451;28;20204;-68
2023/05/18 03:23:39;;;;;;;15.03;4.60;;;;;3.80;96887.00;;;;8321519;28;20232;-68
2023/05/18 03:27:42;;;;;;;9.67;4.40;;;;;3.70;96893.00;;;;8311409;28;20202;-68
2023/05/18 03:31:45;;;;;;;19.20;4.83;;;;;3.70;96893.00;;;;8310109;28;20235;-68
2023/05/18 03:35:53;;;;;;;9.13;4.03;;;;;3.60;96898.00;;;;8313886;28;20209;-67
2023/05/18 03:40:00;;;;;;;20.67;4.73;;;;;3.60;96890.00;;;;8306196;28;20201;-69
2023/05/18 03:44:03;;;;;;;12.13;4.73;;;;;3.60;96892.00;;;;8305914;28;21025;-68
2023/05/18 03:48:06;;;;;;;19.20;5.33;;;;;3.70;96896.00;;;;8303620;28;20950;-67
2023/05/18 03:52:10;;;;;;;12.37;4.57;;;;;3.70;96890.00;;;;8311898;28;20245;-67
2023/05/18 03:56:18;;;;;;;11.80;5.13;;;;;3.80;96900.00;;;;8316066;28;20205;-67
2023/05/18 04:00:22;;;;;;;16.23;5.53;;;;;3.90;96893.00;;;;8310455;28;20206;-67
2023/05/18 04:04:27;;;;;;;18.90;5.37;;;;;4.00;96899.00;;;;8294198;28;20743;-67
2023/05/18 04:08:33;;;;;;;10.93;4.60;;;;;4.10;96902.00;;;;8287885;28;20274;-68
2023/05/18 04:12:37;;;;;;;13.07;4.63;;;;;4.20;96906.00;;;;8288651;28;20237;-68
2023/05/18 04:16:46;;;;;;;8.87;4.33;;;;;4.30;96901.00;;;;8289132;28;20795;-68
2023/05/18 04:20:49;;;;;;;6.53;4.70;;;;;4.40;96915.00;;;;8284906;28;20769;-68
2023/05/18 04:24:53;;;;;;;12.07;4.40;;;;;4.40;96901.00;;;;8284508;28;20902;-68
2023/05/18 04:29:00;;;;;;;9.47;4.40;;;;;4.60;96917.00;;;;8283304;28;20754;-67
2023/05/18 04:33:05;;;;;;;13.37;4.83;;;;;4.70;96920.00;;;;8274404;28;20323;-67
2023/05/18 04:37:10;;;;;;;15.33;5.33;;;;;4.90;96912.00;;;;8280850;28;20201;-68
2023/05/18 04:41:19;;;;;;;23.37;6.10;;;;;5.20;96913.00;;;;8282617;28;20244;-68
2023/05/18 04:45:24;;;;;;;12.43;5.10;;;;;5.60;96914.00;;;;8281494;28;20217;-68
2023/05/18 04:49:28;;;;;;;14.30;5.77;;;;;5.90;96925.00;;;;8290852;28;20200;-68
2023/05/18 04:53:33;;;;;;;17.27;6.07;;;;;6.30;96925.00;;;;8288406;28;20225;-68
2023/05/18 04:57:39;;;;;;;14.67;4.97;;;;;6.80;96926.00;;;;8279981;28;20287;-68
2023/05/18 05:01:44;;;;;;;13.70;4.40;;;;;7.30;96930.00;;;;8286150;28;20288;-68
2023/05/18 05:05:47;;;;;;;8.07;3.87;;;;;7.70;96944.00;;;;8281612;28;20638;-69
2023/05/18 05:09:55;;;;;;;21.67;3.70;;;;;8.10;96945.00;;;;8280109;28;20198;-69
2023/05/18 05:14:01;;;;;;;4.73;3.00;;;;;8.50;96940.00;;;;8281308;28;20312;-70
2023/05/18 05:18:06;;;;;;;11.27;4.07;;;;;8.70;96943.00;;;;8283111;28;20201;-68
2023/05/18 05:22:09;;;;;;;12.03;3.40;;;;;9.00;96943.00;;;;8281322;28;20224;-68
2023/05/18 05:26:12;;;;;;;8.50;3.33;;;;;9.20;96944.00;;;;8284914;28;20647;-68
2023/05/18 05:30:19;;;;;;;5.93;3.33;;;;;9.40;96943.00;;;;8283103;28;20195;-68
2023/05/18 05:34:24;;;;;;;9.47;3.10;;;;;9.50;96938.00;;;;8278768;28;20689;-69
2023/05/18 05:38:31;;;;;;;9.30;3.03;;;;;9.60;96946.00;;;;8283022;28;20209;-69
2023/05/18 05:42:34;;;;;;;6.33;3.00;;;;;9.80;96938.00;;;;8281104;28;20231;-69
2023/05/18 05:46:43;;;;;;;13.80;3.43;;;;;9.80;96937.00;;;;8283050;28;20883;-69
2023/05/18 05:50:48;;;;;;;6.00;2.83;;;;;9.90;96944.00;;;;8285492;28;20200;-69
2023/05/18 05:54:54;;;;;;;9.38;2.65;;;;;10.00;96943.00;;;;8279363;28;20310;-69
2023/05/18 05:58:57;;;;;;;9.27;2.70;;;;;10.00;96946.00;;;;8284039;28;20660;-69
2023/05/18 06:03:03;;;;;;;11.63;3.13;;;;;10.10;96944.00;;;;8282257;28;20222;-69
2023/05/18 06:07:11;;;;;;;9.20;3.30;;;;;10.10;96947.00;;;;8285307;28;20186;-69
2023/05/18 06:11:19;;;;;;;5.07;2.73;;;;;10.10;96953.00;;;;8283612;28;20807;-69
2023/05/18 06:15:33;;;;;;;12.57;2.93;;;;;10.20;96951.00;;;;8286054;28;20269;-69
2023/05/18 06:19:43;;;;;;;9.23;3.27;;;;;10.40;96958.00;;;;8275367;28;20205;-69
2023/05/18 06:23:53;;;;;;;11.87;3.20;;;;;10.50;96955.00;;;;8283372;28;20205;-70
2023/05/18 06:27:57;;;;;;;8.60;3.07;;;;;10.80;96971.00;;;;8285809;28;20209;-70
2023/05/18 06:32:02;;;;;;;9.27;3.03;;;;;11.40;96972.00;;;;8282293;28;20592;-70
2023/05/18 06:36:06;;;;;;;11.32;3.78;;;;;11.90;96970.00;;;;8284232;28;20233;-70
2023/05/18 06:40:11;;;;;;;13.70;3.23;;;;;12.30;96968.00;;;;8289092;28;20205;-71
2023/05/18 06:44:17;;;;;;;9.60;3.15;;;;;12.80;96966.00;;;;8286623;28;20277;-71
2023/05/18 06:48:26;;;;;;;8.33;3.30;;;;;13.10;96964.00;;;;8287333;28;20199;-69
2023/05/18 06:52:32;;;;;;;13.65;2.78;;;;;13.40;96973.00;;;;8290845;28;20212;-71
2023/05/18 06:56:37;;;;;;;10.38;3.28;;;;;14.00;96980.00;;;;8286176;28;20284;-70
2023/05/18 07:00:44;;;;;;;6.10;2.90;;;;;14.20;96983.00;;;;8284356;28;20241;-71
2023/05/18 07:04:48;;;;;;;6.75;2.63;;;;;14.60;96990.00;;;;8265339;28;20241;-70
2023/05/18 07:08:51;;;;;;;7.35;2.78;;;;;14.80;96992.00;;;;8276345;28;20233;-70
2023/05/18 07:12:58;;;;;;;12.85;3.40;;;;;15.10;96986.00;;;;8289281;28;20228;-70
2023/05/18 07:17:05;;;;;;;10.82;3.03;;;;;15.20;96989.00;;;;8283341;28;20647;-68
2023/05/18 07:21:13;;;;;;;8.10;3.17;;;;;15.30;96993.00;;;;8280612;28;20231;-68
2023/05/18 07:25:16;;;;;;;10.40;3.15;;;;;15.20;96990.00;;;;8286483;28;20235;-69
2023/05/18 07:29:23;;;;;;;14.85;3.42;;;;;15.30;96985.00;;;;8281950;28;20214;-68
2023/05/18 07:33:27;;;;;;;11.40;3.17;;;;;15.70;96972.00;;;;8293980;28;20587;-68
2023/05/18 07:37:34;;;;;;;7.15;3.03;;;;;15.80;96978.00;;;;8280878;28;20240;-70
2023/05/18 07:41:40;;;;;;;9.48;2.85;;;;;15.90;96988.00;;;;8282386;28;20563;-71
2023/05/18 07:45:45;;;;;;;10.68;2.25;;;;;15.90;96979.00;;;;8277537;28;20309;-71
2023/05/18 07:49:49;;;;;;;6.28;2.75;;;;;16.60;96979.00;;;;8288507;28;20288;-67
2023/05/18 07:53:57;;;;;;;9.25;3.08;;;;;17.10;96978.00;;;;8280312;28;20222;-67
2023/05/18 07:58:00;;;;;;;7.22;2.60;;;;;16.70;96984.00;;;;8286029;28;20670;-68
2023/05/18 08:02:06;;;;;;;9.70;3.20;;;;;16.50;96989.00;;;;8284132;28;20773;-68
2023/05/18 08:06:10;;;;;;;8.23;2.50;;;;;16.60;96980.00;;;;8289080;28;20233;-68
2023/05/18 08:10:13;;;;;;;8.20;2.80;;;;;16.60;96976.00;;;;8289980;28;20226;-68
2023/05/18 08:14:20;;;;;;;6.45;2.50;;;;;16.60;96992.00;;;;8289722;28;20261;-69
2023/05/18 08:18:25;;;;;;;6.00;2.40;;;;;16.80;97002.00;;;;8278311;28;20222;-69
2023/05/18 08:22:28;;;;;;;7.32;2.47;;;;;17.10;96991.00;;;;8286383;28;20770;-68
2023/05/18 08:26:32;;;;;;;11.73;2.72;;;;;17.00;96984.00;;;;8283900;28;20831;-69
2023/05/18 08:30:35;;;;;;;6.70;2.70;;;;;16.90;96977.00;;;;8278526;28;20198;-68
2023/05/18 08:34:40;;;;;;;9.00;2.80;;;;;17.10;96986.00;;;;8281908;28;20257;-69
2023/05/18 08:38:43;;;;;;;13.95;3.13;;;;;17.10;96983.00;;;;8285029;28;20202;-69
2023/05/18 08:42:51;;;;;;;10.55;2.50;;;;;17.60;96971.00;;;;8282774;28;20707;-69
2023/05/18 08:46:57;;;;;;;5.22;2.42;;;;;17.80;96978.00;;;;8292178;28;20296;-69
2023/05/18 08:51:10;;;;;;;9.40;2.90;;;;;17.80;96976.00;;;;8289661;28;20206;-69
2023/05/18 08:55:17;;;;;;;7.82;2.42;;;;;17.70;96964.00;;;;8289881;28;20312;-69
2023/05/18 08:59:26;;;;;;;5.70;2.38;;;;;17.20;96966.00;;;;8287287;28;20198;-69
2023/05/18 09:03:31;;;;;;;14.75;2.97;;;;;17.50;96962.00;;;;8287116;28;20349;-68
2023/05/18 09:07:40;;;;;;;8.80;2.42;;;;;17.60;96969.00;;;;8288710;28;20198;-68
2023/05/18 09:11:45;;;;;;;6.13;2.95;;;;;17.70;96972.00;;;;8281754;28;20261;-71
2023/05/18 09:15:50;;;;;;;10.32;2.67;;;;;18.20;96953.00;;;;8275593;28;20246;-70
2023/05/18 09:19:53;;;;;;;11.80;2.72;;;;;19.10;96965.00;;;;8289508;28;20229;-69
2023/05/18 09:23:59;;;;;;;10.48;2.90;;;;;20.00;96958.00;;;;8273518;28;20207;-69
2023/05/18 09:28:04;;;;;;;12.60;3.30;;;;;20.80;96957.00;;;;8284446;28;20668;-69
2023/05/18 09:32:10;;;;;;;7.07;2.70;;;;;21.10;96966.00;;;;8283598;28;20287;-70
2023/05/18 09:36:23;;;;;;;7.07;2.42;;;;;20.10;96961.00;;;;8277435;28;20233;-69
2023/05/18 09:40:29;;;;;;;9.75;2.63;;;;;19.40;96957.00;;;;8287110;28;20735;-69
2023/05/18 09:44:34;;;;;;;5.97;2.65;;;;;18.60;96965.00;;;;8279284;28;20208;-69
2023/05/18 09:48:41;;;;;;;9.70;3.30;;;;;19.00;96953.00;;;;8285174;28;20206;-69
2023/05/18 09:52:46;;;;;;;6.00;2.65;;;;;19.80;96956.00;;;;8276689;28;20893;-70
2023/05/18 09:56:50;;;;;;;9.52;3.05;;;;;20.70;96956.00;;;;8283787;28;20626;-69
2023/05/18 10:01:12;;;;;;;8.68;2.67;;;;;21.60;96955.00;;;;8286669;28;20646;-69
2023/05/18 10:05:22;;;;;;;6.28;2.30;;;;;22.00;96965.00;;;;8286555;28;20222;-70
2023/05/18 10:09:25;;;;;;;7.18;3.17;;;;;21.90;96960.00;;;;8286696;28;20206;-71
2023/05/18 10:13:31;;;;;;;6.93;2.80;;;;;22.30;96959.00;;;;8285861;28;20210;-69
2023/05/18 10:17:37;;;;;;;6.82;2.67;;;;;22.90;96959.00;;;;8280010;28;20302;-69
2023/05/18 10:21:42;;;;;;;9.13;2.80;;;;;22.90;96957.00;;;;8280457;28;20446;-69
2023/05/18 10:25:49;;;;;;;9.15;2.75;;;;;22.40;96956.00;;;;8279707;28;20716;-70
2023/05/18 10:29:57;;;;;;;4.32;2.28;;;;;22.20;96950.00;;;;8279771;28;20194;-69
2023/05/18 10:34:03;;;;;;;10.45;2.30;;;;;22.30;96965.00;;;;8276822;28;20223;-68
2023/05/18 10:38:07;;;;;;;9.65;3.35;;;;;22.60;96952.00;;;;8279046;28;20285;-69
2023/05/18 10:42:12;;;;;;;9.68;3.00;;;;;23.00;96944.00;;;;8286100;28;20277;-70
2023/05/18 10:46:17;;;;;;;16.45;3.30;;;;;23.30;96945.00;;;;8277731;28;20281;-69
2023/05/18 10:50:21;;;;;;;8.60;2.78;;;;;22.90;96946.00;;;;8281332;28;20206;-70
2023/05/18 10:54:27;;;;;;;4.68;2.58;;;;;22.90;96936.00;;;;8284998;28;20229;-70
2023/05/18 10:58:31;;;;;;;9.48;3.50;;;;;23.10;96942.00;;;;8279968;28;20210;-69
2023/05/18 11:02:38;;;;;;;6.72;2.40;;;;;23.40;96941.00;;;;8283333;28;20644;-69
2023/05/18 11:06:54;;;;;;;10.27;2.63;;;;;23.10;96939.00;;;;8276168;28;20202;-68
2023/05/18 11:11:06;;;;;;;4.30;1.95;;;;;22.90;96929.00;;;;8287489;28;20726;-68
2023/05/18 11:15:10;;;;;;;6.90;2.70;;;;;22.10;96937.00;;;;8285422;28;20226;-70
2023/05/18 11:19:19;;;;;;;8.35;2.50;;;;;22.30;96920.00;;;;8285086;28;20256;-70
2023/05/18 11:23:32;;;;;;;9.38;3.03;;;;;22.70;96928.00;;;;8284285;28;20244;-69
2023/05/18 11:27:37;;;;;;;6.82;2.80;;;;;23.20;96937.00;;;;8285623;28;20232;-70
2023/05/18 11:31:44;;;;;;;12.15;2.65;;;;;23.00;96933.00;;;;8283597;28;20285;-70
2023/05/18 11:36:01;;;;;;;8.48;3.35;;;;;22.40;96937.00;;;;8292672;28;20964;-69
2023/05/18 11:40:06;;;;;;;10.30;2.92;;;;;22.70;96930.00;;;;8292243;28;20214;-70
2023/05/18 11:44:17;;;;;;;8.77;2.92;;;;;23.80;96915.00;;;;8291254;28;20198;-69
2023/05/18 11:48:22;;;;;;;12.00;3.45;;;;;24.10;96927.00;;;;8278997;28;20291;-70
2023/05/18 11:52:28;;;;;;;8.05;2.55;;;;;22.80;96924.00;;;;8281993;28;20198;-70
2023/05/18 11:56:33;;;;;;;9.63;2.72;;;;;22.90;96929.00;;;;8289703;28;20229;-71
2023/05/18 12:00:38;;;;;;;7.35;2.80;;;;;22.20;96934.00;;;;8277112;28;20979;-71
2023/05/18 12:04:49;;;;;;;5.95;2.85;;;;;22.10;96939.00;;;;8294368;28;20312;-69
2023/05/18 12:08:55;;;;;;;7.07;2.72;;;;;22.50;96927.00;;;;8278955;28;20621;-69
2023/05/18 12:12:59;;;;;;;8.73;3.47;;;;;21.70;96934.00;;;;8273288;28;20198;-70
2023/05/18 12:17:05;;;;;;;7.07;3.00;;;;;21.40;96921.00;;;;8282752;28;20264;-71
2023/05/18 12:21:08;;;;;;;11.55;2.92;;;;;21.30;96920.00;;;;8290639;28;20195;-69
2023/05/18 12:25:13;;;;;;;9.10;2.75;;;;;21.50;96916.00;;;;8286610;28;20726;-69
2023/05/18 12:29:18;;;;;;;6.32;2.60;;;;;21.70;96921.00;;;;8287449;28;20996;-69
2023/05/18 12:33:22;;;;;;;10.05;3.35;;;;;21.10;96912.00;;;;8289904;28;20241;-70
2023/05/18 12:37:25;;;;;;;11.85;2.58;;;;;20.80;96921.00;;;;8283804;28;20316;-70
2023/05/18 12:41:47;;;;;;;7.63;3.25;;;;;20.40;96922.00;;;;8290485;28;20194;-68
2023/05/18 12:45:54;;;;;;;16.45;3.20;;;;;19.70;96916.00;;;;8283480;28;20306;-70
2023/05/18 12:50:02;;;;;;;7.07;2.88;;;;;19.30;96916.00;;;;8283557;28;20199;-69
2023/05/18 12:54:06;;;;;;;10.15;3.03;;;;;19.20;96903.00;;;;8270291;28;20205;-70
2023/05/18 12:58:15;;;;;;;7.93;2.72;;;;;19.80;96894.00;;;;8283119;28;20646;-68
2023/05/18 13:02:29;;;;;;;7.78;2.80;;;;;20.00;96910.00;;;;8283695;28;20242;-69
2023/05/18 13:06:39;;;;;;;11.40;2.70;;;;;19.70;96904.00;;;;8285076;28;20202;-68
2023/05/18 13:10:44;;;;;;;12.68;3.30;;;;;19.20;96911.00;;;;8278216;28;20198;-69
2023/05/18 13:14:53;;;;;;;14.00;3.20;;;;;18.70;96895.00;;;;8279388;28;20233;-70
2023/05/18 13:18:57;;;;;;;9.70;2.70;;;;;19.20;96898.00;;;;8278213;28;20211;-69
2023/05/18 13:23:03;;;;;;;6.35;2.72;;;;;20.30;96895.00;;;;8278895;28;20797;-69
2023/05/18 13:27:09;;;;;;;9.60;2.78;;;;;21.30;96904.00;;;;8282939;28;20202;-69
2023/05/18 13:31:19;;;;;;;9.15;2.63;;;;;21.70;96901.00;;;;8279933;28;20328;-68
2023/05/18 13:35:23;;;;;;;7.38;2.80;;;;;21.20;96897.00;;;;8291396;28;20323;-69
2023/05/18 13:39:26;;;;;;;5.28;2.85;;;;;20.60;96903.00;;;;8289172;28;20233;-70
2023/05/18 13:43:33;;;;;;;9.40;2.42;;;;;20.30;96908.00;;;;8283536;28;20859;-69
2023/05/18 13:47:38;;;;;;;7.55;2.72;;;;;19.70;96882.00;;;;8287140;28;20975;-69
2023/05/18 13:51:41;;;;;;;7.78;2.70;;;;;19.90;96883.00;;;;8277122;28;20782;-70
2023/05/18 13:55:46;;;;;;;4.47;2.55;;;;;19.80;96887.00;;;;8290944;28;20236;-70
2023/05/18 13:59:49;;;;;;;7.70;2.67;;;;;19.90;96878.00;;;;8283016;28;20317;-68
2023/05/18 14:03:55;;;;;;;10.02;2.83;;;;;19.80;96882.00;;;;8276917;28;20750;-68
2023/05/18 14:07:58;;;;;;;9.90;2.30;;;;;19.50;96875.00;;;;8279225;28;20203;-68
2023/05/18 14:12:04;;;;;;;10.23;2.90;;;;;19.50;96878.00;;;;8276758;28;20234;-68
2023/05/18 14:16:08;;;;;;;8.88;2.70;;;;;19.70;96864.00;;;;8280477;28;20261;-70
2023/05/18 14:20:13;;;;;;;12.02;3.28;;;;;19.90;96868.00;;;;8282796;28;20205;-68
2023/05/18 14:24:18;;;;;;;7.65;2.53;;;;;20.00;96868.00;;;;8276168;28;20202;-68
2023/05/18 14:28:23;;;;;;;11.07;3.00;;;;;20.30;96871.00;;;;8279076;28;20202;-67
2023/05/18 14:32:31;;;;;;;13.27;3.20;;;;;20.20;96874.00;;;;8284512;28;20289;-68
2023/05/18 14:36:35;;;;;;;9.82;2.58;;;;;20.00;96859.00;;;;8284140;28;20238;-68
2023/05/18 14:40:38;;;;;;;7.03;2.78;;;;;20.10;96858.00;;;;8285906;28;20866;-67
2023/05/18 14:44:41;;;;;;;6.97;2.50;;;;;20.40;96861.00;;;;8287208;28;20229;-67
2023/05/18 14:48:44;;;;;;;7.70;2.78;;;;;20.60;96860.00;;;;8282705;28;20245;-68
2023/05/18 14:52:51;;;;;;;5.53;2.80;;;;;20.80;96852.00;;;;8280105;28;20284;-67
2023/05/18 14:56:54;;;;;;;8.60;2.67;;;;;20.70;96859.00;;;;8280722;28;20263;-67
2023/05/18 15:00:58;;;;;;;8.38;3.05;;;;;20.50;96852.00;;;;8280504;28;20316;-69
2023/05/18 15:05:06;;;;;;;6.15;2.50;;;;;20.70;96853.00;;;;8281325;28;20231;-68
2023/05/18 15:09:13;;;;;;;10.98;3.13;;;;;20.70;96854.00;;;;8287551;28;20264;-68
2023/05/18 15:13:17;;;;;;;5.18;2.40;;;;;21.00;96856.00;;;;8284917;28;20333;-68
2023/05/18 15:17:26;;;;;;;5.78;2.42;;;;;20.90;96850.00;;;;8283421;28;20610;-69
2023/05/18 15:21:30;;;;;;;7.68;2.33;;;;;20.50;96841.00;;;;8282441;28;20194;-67
2023/05/18 15:25:35;;;;;;;4.72;2.42;;;;;21.00;96838.00;;;;8279939;28;20289;-67
2023/05/18 15:29:39;;;;;;;10.65;2.70;;;;;22.10;96841.00;;;;8281063;28;20326;-67
2023/05/18 15:33:42;;;;;;;7.25;2.88;;;;;22.30;96856.00;;;;8279520;28;20233;-68
2023/05/18 15:37:50;;;;;;;11.35;2.83;;;;;21.50;96859.00;;;;8278789;28;20264;-68
2023/05/18 15:41:55;;;;;;;4.68;2.30;;;;;21.00;96844.00;;;;8278408;28;20760;-68
2023/05/18 15:45:58;;;;;;;6.68;2.75;;;;;20.50;96847.00;;;;8275885;28;20206;-69
2023/05/18 15:50:01;;;;;;;7.88;2.67;;;;;20.20;96848.00;;;;8273338;28;20217;-69
2023/05/18 15:54:05;;;;;;;10.90;3.00;;;;;20.20;96850.00;;;;8280718;28;20237;-68
2023/05/18 15:58:13;;;;;;;6.88;3.00;;;;;20.30;96846.00;;;;8280267;28;20253;-67
2023/05/18 16:02:18;;;;;;;8.30;2.92;;;;;20.40;96839.00;;;;8274870;28;20226;-67
2023/05/18 16:06:25;;;;;;;12.60;2.90;;;;;20.70;96834.00;;;;8279569;28;20204;-68
2023/05/18 16:10:34;;;;;;;10.10;3.13;;;;;20.70;96837.00;;;;8279904;28;20222;-67
2023/05/18 16:14:40;;;;;;;12.30;2.97;;;;;20.90;96826.00;;;;8279376;28;20309;-68
2023/05/18 16:18:48;;;;;;;9.32;2.83;;;;;20.40;96823.00;;;;8276470;28;20353;-67
2023/05/18 16:22:53;;;;;;;6.60;2.55;;;;;20.20;96828.00;;;;8282961;28;20285;-67
2023/05/18 16:26:56;;;;;;;9.73;3.03;;;;;20.00;96827.00;;;;8284984;28;20233;-68
2023/05/18 16:31:03;;;;;;;6.22;2.90;;;;;19.70;96830.00;;;;8286410;28;20201;-68
2023/05/18 16:35:08;;;;;;;9.02;2.95;;;;;19.50;96837.00;;;;8288031;28;20206;-67
2023/05/18 16:39:11;;;;;;;9.02;2.78;;;;;19.20;96841.00;;;;8281614;28;20295;-68
2023/05/18 16:43:27;;;;;;;9.32;2.92;;;;;19.00;96840.00;;;;8282167;28;20198;-69
2023/05/18 16:47:34;;;;;;;8.20;3.05;;;;;18.70;96836.00;;;;8280281;28;20241;-67
2023/05/18 16:51:38;;;;;;;6.28;3.00;;;;;18.30;96840.00;;;;8284458;28;20213;-68
2023/05/18 16:55:42;;;;;;;7.30;2.83;;;;;18.00;96843.00;;;;8277209;28;20194;-67
2023/05/18 16:59:49;;;;;;;11.00;2.50;;;;;17.80;96843.00;;;;8281996;28;20821;-68
2023/05/18 17:03:56;;;;;;;8.63;3.10;;;;;17.70;96837.00;;;;8272586;28;20904;-67
2023/05/18 17:08:00;;;;;;;6.38;2.65;;;;;17.60;96840.00;;;;8273621;28;20253;-67
2023/05/18 17:12:04;;;;;;;11.48;2.70;;;;;17.50;96842.00;;;;8276869;28;20213;-67
2023/05/18 17:16:08;;;;;;;5.20;2.97;;;;;17.40;96843.00;;;;8270309;28;20201;-66
2023/05/18 17:20:19;;;;;;;16.90;3.15;;;;;17.30;96840.00;;;;8276230;28;20292;-67
2023/05/18 17:24:24;;;;;;;9.30;2.78;;;;;17.20;96843.00;;;;8278352;28;20282;-67
2023/05/18 17:28:32;;;;;;;8.77;2.60;;;;;17.10;96844.00;;;;8280161;28;20229;-68
2023/05/18 17:32:48;;;;;;;6.30;2.72;;;;;17.10;96840.00;;;;8279212;28;20214;-67
2023/05/18 17:36:53;;;;;;;6.68;2.70;;;;;17.00;96848.00;;;;8283960;28;20230;-67
2023/05/18 17:40:57;;;;;;;10.55;3.00;;;;;16.90;96836.00;;;;8272320;28;20202;-68
2023/05/18 17:45:00;;;;;;;7.05;3.05;;;;;16.80;96838.00;;;;8280607;28;20683;-67
2023/05/18 17:49:03;;;;;;;11.30;3.00;;;;;16.70;96840.00;;;;8279056;28;20209;-67
2023/05/18 17:53:08;;;;;;;5.63;3.10;;;;;16.60;96841.00;;;;8280408;28;20297;-69
2023/05/18 17:57:14;;;;;;;10.82;3.40;;;;;16.50;96855.00;;;;8274751;28;20292;-68
2023/05/18 18:01:17;;;;;;;8.75;3.60;;;;;16.30;96845.00;;;;8271447;28;20203;-68
2023/05/18 18:05:22;;;;;;;6.43;3.38;;;;;16.30;96843.00;;;;8280669;28;20257;-68
2023/05/18 18:09:27;;;;;;;7.05;3.20;;;;;16.10;96844.00;;;;8279272;28;20301;-68
2023/05/18 18:13:30;;;;;;;11.52;3.65;;;;;16.00;96851.00;;;;8276579;28;20237;-67
2023/05/18 18:17:33;;;;;;;11.80;3.55;;;;;15.90;96847.00;;;;8279591;28;20865;-67
2023/05/18 18:21:49;;;;;;;4.25;2.83;;;;;15.80;96847.00;;;;8282715;28;20198;-69
2023/05/18 18:25:56;;;;;;;12.32;3.80;;;;;15.70;96845.00;;;;8284240;28;20248;-67
2023/05/18 18:30:01;;;;;;;9.55;3.38;;;;;15.60;96848.00;;;;8279878;28;20650;-67
2023/05/18 18:34:07;;;;;;;15.35;3.70;;;;;15.50;96849.00;;;;8284301;28;20818;-67
2023/05/18 18:38:13;;;;;;;9.32;3.45;;;;;15.40;96856.00;;;;8280687;28;20228;-66
2023/05/18 18:42:20;;;;;;;8.30;3.03;;;;;15.40;96862.00;;;;8282486;28;20730;-66
2023/05/18 18:46:26;;;;;;;12.35;3.58;;;;;15.30;96864.00;;;;8277810;28;20205;-66
2023/05/18 18:50:31;;;;;;;9.73;3.90;;;;;15.20;96873.00;;;;8275885;28;20202;-66
2023/05/18 18:54:36;;;;;;;10.70;3.75;;;;;15.10;96869.00;;;;8278853;28;20878;-66
2023/05/18 18:58:42;;;;;;;12.80;3.72;;;;;15.10;96870.00;;;;8279314;28;20229;-67
2023/05/18 19:02:46;;;;;;;11.63;3.30;;;;;15.00;96882.00;;;;8283444;28;20318;-67
2023/05/18 19:06:52;;;;;;;8.52;2.78;;;;;15.00;96893.00;;;;8275300;28;20286;-67
2023/05/18 19:10:58;;;;;;;15.13;4.05;;;;;15.00;96895.00;;;;8274168;28;20225;-67
2023/05/18 19:15:03;;;;;;;9.40;3.35;;;;;14.90;96901.00;;;;8283370;28;20817;-66
2023/05/18 19:19:08;;;;;;;8.32;2.88;;;;;14.90;96910.00;;;;8282480;28;20234;-66
2023/05/18 19:23:11;;;;;;;7.90;3.30;;;;;14.80;96916.00;;;;8282165;28;20198;-67
2023/05/18 19:27:14;;;;;;;7.40;3.17;;;;;14.70;96918.00;;;;8282828;28;20297;-66
2023/05/18 19:31:26;;;;;;;5.95;3.13;;;;;14.70;96931.00;;;;8275133;28;20456;-66
2023/05/18 19:35:33;;;;;;;9.65;3.10;;;;;14.70;96929.00;;;;8277975;28;20202;-68
2023/05/18 19:39:36;;;;;;;6.60;2.85;;;;;14.60;96933.00;;;;8262399;28;20244;-68
2023/05/18 19:43:39;;;;;;;7.72;2.80;;;;;14.50;96937.00;;;;8277460;28;20225;-69
2023/05/18 19:47:46;;;;;;;6.97;2.65;;;;;14.50;96933.00;;;;8280467;28;20567;-70
2023/05/18 19:51:50;;;;;;;12.85;3.22;;;;;14.40;96929.00;;;;8287813;28;20245;-68
2023/05/18 19:55:56;;;;;;;11.38;3.65;;;;;14.40;96933.00;;;;8278407;28;20308;-68
2023/05/18 19:59:59;;;;;;;9.15;3.22;;;;;14.30;96935.00;;;;8287865;28;20260;-68
2023/05/18 20:04:03;;;;;;;7.30;3.05;;;;;14.30;96936.00;;;;8289851;28;20226;-67
2023/05/18 20:08:08;;;;;;;6.63;3.13;;;;;14.30;96943.00;;;;8286315;28;20234;-67
2023/05/18 20:12:13;;;;;;;9.15;3.25;;;;;14.20;96946.00;;;;8294475;28;20199;-69
2023/05/18 20:16:18;;;;;;;10.38;3.25;;;;;14.20;96943.00;;;;8293604;28;20198;-67
2023/05/18 20:20:29;;;;;;;11.80;3.10;;;;;14.10;96943.00;;;;8284466;28;20333;-67
2023/05/18 20:24:37;;;;;;;7.65;2.65;;;;;14.10;96944.00;;;;8291511;28;20201;-67
2023/05/18 20:28:40;;;;;;;6.07;2.60;;;;;14.10;96938.00;;;;8286082;28;20680;-67